Cottage Grove, Minnesota
Current Conditions -  °F | °C
As of 3:30 PM on Thursday 23 Oct 2014 (Local Time) from KSGS Reporting Station
Scattered Clouds Scattered Clouds  
Wind Chill: 67°   Ceiling: Unl
Heat Index: 67°   Visibility: 10mi
Dew Point: 51°   Wind: 0mph
Humidity: 56%   Direction: NA
Pressure: 29.95"   Gusts: NA
Location:  44.83°N, 92.95°W
Report Text: KSGS 232030Z AUTO 00000KT 10SM SCT041 19/10 A2995 RMK AO2 T01920103
Loading
Personal Weather Stations






























Interactive Weather Map
Tropical Storm Tracking
New forecast layout! Learn more

10-Day Weather Forecast

Advertisements
Track Severe Weather on mobile